Time;durP1;ratioP1;P1;durP2;ratioP2;P2;SDS_P1;SDS_P2;PMS_P1;PMS_P2;Temp;Humidity;BMP_temperature;BMP_pressure;BME280_temperature;BME280_humidity;BME280_pressure;Samples;Min_cycle;Max_cycle;Signal;HPM_P1;HPM_P2
2023/06/21 00:00:59;;;;;;;30.58;26.90;;;19.00;99.90;;;;;;5090718;28;20032;-51
2023/06/21 00:03:25;;;;;;;29.98;26.88;;;19.00;99.90;;;;;;5109854;28;20031;-50
2023/06/21 00:05:50;;;;;;;28.05;24.77;;;19.00;99.90;;;;;;5089594;28;20480;-54
2023/06/21 00:08:16;;;;;;;29.25;26.20;;;19.00;99.90;;;;;;5108010;28;20035;-51
2023/06/21 00:10:44;;;;;;;31.65;27.48;;;18.90;99.90;;;;;;5090941;28;20036;-53
2023/06/21 00:13:09;;;;;;;30.17;26.92;;;18.90;99.90;;;;;;5108828;28;20051;-54
2023/06/21 00:15:36;;;;;;;28.52;25.52;;;18.90;99.90;;;;;;5090900;28;20120;-51
2023/06/21 00:18:02;;;;;;;29.90;26.60;;;18.90;99.90;;;;;;5070503;28;20032;-53
2023/06/21 00:20:28;;;;;;;26.60;23.58;;;18.90;99.90;;;;;;5109346;28;20036;-53
2023/06/21 00:22:55;;;;;;;24.02;21.52;;;18.80;99.90;;;;;;5071265;28;20054;-54
2023/06/21 00:25:22;;;;;;;26.73;24.10;;;18.80;99.90;;;;;;5109773;28;20088;-53
2023/06/21 00:27:47;;;;;;;27.30;23.40;;;18.80;99.90;;;;;;5071817;28;20032;-53
2023/06/21 00:30:13;;;;;;;25.45;22.90;;;18.80;99.90;;;;;;5109099;28;20112;-54
2023/06/21 00:32:38;;;;;;;25.27;22.58;;;18.70;99.90;;;;;;5073575;28;20040;-51
2023/06/21 00:35:05;;;;;;;28.52;25.42;;;18.70;99.90;;;;;;5109170;28;20024;-50
2023/06/21 00:37:31;;;;;;;26.25;23.52;;;18.70;99.90;;;;;;5074032;28;20035;-52
2023/06/21 00:39:56;;;;;;;26.92;24.13;;;18.70;99.90;;;;;;5106986;28;20103;-54
2023/06/21 00:42:23;;;;;;;26.73;23.80;;;18.60;99.90;;;;;;5094781;28;20016;-51
2023/06/21 00:44:48;;;;;;;28.08;25.08;;;18.60;99.90;;;;;;5107937;28;20092;-52
2023/06/21 00:47:14;;;;;;;29.58;26.08;;;18.60;99.90;;;;;;5110085;28;20036;-53
2023/06/21 00:49:39;;;;;;;26.35;23.45;;;18.60;99.90;;;;;;5093883;28;20062;-50
2023/06/21 00:52:05;;;;;;;26.45;23.67;;;18.50;99.90;;;;;;5109389;28;20498;-52
2023/06/21 00:54:35;;;;;;;30.00;26.77;;;18.50;99.90;;;;;;5093284;28;20079;-53
2023/06/21 00:57:02;;;;;;;31.90;26.13;;;18.50;99.90;;;;;;5110149;28;20028;-52
2023/06/21 00:59:28;;;;;;;28.38;25.38;;;18.50;99.90;;;;;;5092493;28;20122;-53
2023/06/21 01:01:55;;;;;;;33.42;28.08;;;18.50;99.90;;;;;;5109844;28;20114;-53
2023/06/21 01:04:25;;;;;;;30.48;27.23;;;18.50;99.90;;;;;;5091524;28;20025;-53
2023/06/21 01:07:05;;;;;;;29.88;25.48;;;18.50;99.90;;;;;;5100650;28;20040;-49
2023/06/21 01:09:31;;;;;;;29.60;26.50;;;18.50;99.90;;;;;;5092571;28;20036;-50
2023/06/21 01:12:12;;;;;;;36.03;30.30;;;18.50;99.90;;;;;;5109837;28;20034;-52
2023/06/21 01:15:02;;;;;;;33.75;29.80;;;18.60;99.90;;;;;;5079329;28;20643;-48
2023/06/21 01:17:37;;;;;;;29.73;26.55;;;18.60;99.90;;;;;;5109674;28;20368;-48
2023/06/21 01:20:13;;;;;;;28.08;25.02;;;18.60;99.90;;;;;;5096893;28;20035;-52
2023/06/21 01:22:56;;;;;;;27.98;25.00;;;18.60;99.90;;;;;;5069142;28;20037;-53
2023/06/21 01:25:37;;;;;;;26.35;23.60;;;18.60;99.90;;;;;;5091552;28;20084;-53
2023/06/21 01:28:38;;;;;;;31.67;28.35;;;18.60;99.90;;;;;;5067559;28;20060;-53
2023/06/21 01:31:05;;;;;;;34.55;29.27;;;18.70;99.90;;;;;;5027511;28;20516;-50
2023/06/21 01:33:31;;;;;;;28.38;25.48;;;18.70;99.90;;;;;;5067816;28;20029;-52
2023/06/21 01:35:58;;;;;;;27.98;24.77;;;18.70;99.90;;;;;;5030916;28;20057;-52
2023/06/21 01:38:24;;;;;;;28.20;25.30;;;18.80;99.90;;;;;;5067870;28;20031;-52
2023/06/21 01:40:50;;;;;;;27.25;24.30;;;18.80;99.90;;;;;;5031858;28;20116;-53
2023/06/21 01:43:17;;;;;;;26.00;22.50;;;18.70;99.90;;;;;;5067617;28;20029;-53
2023/06/21 01:45:42;;;;;;;27.30;24.05;;;18.70;99.90;;;;;;5031192;28;20116;-52
2023/06/21 01:48:08;;;;;;;25.15;22.55;;;18.70;99.90;;;;;;5067233;28;20028;-51
2023/06/21 01:50:35;;;;;;;25.48;22.45;;;18.70;99.90;;;;;;5033660;28;20033;-53
2023/06/21 01:53:02;;;;;;;29.45;26.08;;;18.70;99.90;;;;;;5067713;28;20025;-53
2023/06/21 01:55:29;;;;;;;25.63;22.90;;;18.70;99.90;;;;;;5034141;28;20386;-54
2023/06/21 01:57:56;;;;;;;26.00;23.20;;;18.70;99.90;;;;;;5067706;28;20477;-53
2023/06/21 02:00:22;;;;;;;26.40;22.65;;;18.70;99.90;;;;;;5035214;28;20038;-53
2023/06/21 02:02:52;;;;;;;27.10;24.30;;;18.70;99.90;;;;;;5067409;28;20043;-52
2023/06/21 02:05:20;;;;;;;26.95;24.05;;;18.70;99.90;;;;;;5049728;28;20408;-53
2023/06/21 02:07:47;;;;;;;27.80;23.88;;;18.70;99.90;;;;;;5041553;28;20033;-52
2023/06/21 02:10:15;;;;;;;26.25;23.17;;;18.70;99.90;;;;;;5064557;28;20519;-52
2023/06/21 02:12:46;;;;;;;25.77;23.08;;;18.70;99.90;;;;;;5048823;28;20029;-52
2023/06/21 02:15:12;;;;;;;25.80;22.98;;;18.70;99.90;;;;;;5048040;28;20033;-52
2023/06/21 02:17:38;;;;;;;23.42;21.02;;;18.80;99.90;;;;;;5047534;28;20396;-53
2023/06/21 02:20:09;;;;;;;25.92;23.23;;;18.80;99.90;;;;;;5064415;28;20029;-51
2023/06/21 02:22:35;;;;;;;23.30;20.90;;;18.80;99.90;;;;;;5028481;28;20030;-53
2023/06/21 02:25:00;;;;;;;26.30;23.48;;;18.80;99.90;;;;;;5065159;28;20408;-53
2023/06/21 02:27:26;;;;;;;25.73;22.63;;;18.80;99.90;;;;;;5048773;28;20486;-51
2023/06/21 02:29:51;;;;;;;24.88;21.67;;;18.80;99.90;;;;;;5094764;28;20060;-51
2023/06/21 02:32:17;;;;;;;27.45;24.17;;;18.90;99.90;;;;;;5093809;28;20219;-53
2023/06/21 02:34:42;;;;;;;26.23;23.23;;;18.90;99.90;;;;;;5112916;28;20035;-52
2023/06/21 02:37:11;;;;;;;25.67;22.88;;;18.90;99.90;;;;;;5089581;28;20028;-53
2023/06/21 02:39:37;;;;;;;23.25;20.83;;;18.90;99.90;;;;;;5072198;28;20500;-49
2023/06/21 02:42:03;;;;;;;25.60;21.70;;;19.00;99.90;;;;;;5107975;28;20038;-52
2023/06/21 02:44:29;;;;;;;26.52;23.52;;;19.10;99.90;;;;;;5072055;28;20028;-52
2023/06/21 02:46:56;;;;;;;27.45;23.75;;;19.10;99.90;;;;;;5111401;28;20044;-53
2023/06/21 02:49:22;;;;;;;26.73;23.95;;;19.10;99.90;;;;;;5070191;28;20028;-51
2023/06/21 02:51:51;;;;;;;23.98;21.30;;;19.20;99.90;;;;;;5111374;28;20218;-53
2023/06/21 02:54:16;;;;;;;25.50;22.63;;;19.20;99.90;;;;;;5071446;28;20029;-52
2023/06/21 02:56:43;;;;;;;24.80;21.55;;;19.20;99.90;;;;;;5111161;28;20024;-53
2023/06/21 02:59:09;;;;;;;25.58;22.55;;;19.30;99.90;;;;;;5072350;28;20413;-53
2023/06/21 03:01:37;;;;;;;26.75;24.05;;;19.30;99.90;;;;;;5111388;28;20027;-53
2023/06/21 03:04:02;;;;;;;24.77;21.08;;;19.30;99.90;;;;;;5072947;28;20028;-49
2023/06/21 03:06:29;;;;;;;28.08;22.00;;;19.30;99.90;;;;;;5108892;28;20062;-50
2023/06/21 03:08:58;;;;;;;23.98;21.42;;;19.40;99.90;;;;;;5070864;28;20037;-52
2023/06/21 03:11:23;;;;;;;25.85;20.52;;;19.30;99.90;;;;;;5110999;28;20084;-53
2023/06/21 03:13:49;;;;;;;25.58;22.88;;;19.40;99.90;;;;;;5074988;28;20032;-51
2023/06/21 03:16:15;;;;;;;26.65;23.88;;;19.30;99.90;;;;;;5110966;28;20040;-51
2023/06/21 03:18:40;;;;;;;25.42;22.83;;;19.40;99.90;;;;;;5076190;28;20094;-51
2023/06/21 03:21:06;;;;;;;25.38;21.83;;;19.40;99.90;;;;;;5110720;28;20036;-52
2023/06/21 03:23:31;;;;;;;32.60;27.50;;;19.40;99.90;;;;;;5077399;28;20397;-49
2023/06/21 03:25:57;;;;;;;32.28;27.58;;;19.40;99.90;;;;;;5110772;28;20120;-52
2023/06/21 03:28:22;;;;;;;34.17;28.42;;;19.40;99.90;;;;;;5079970;28;20078;-53
2023/06/21 03:30:48;;;;;;;30.92;26.67;;;19.30;99.90;;;;;;5112201;28;20403;-53
2023/06/21 03:33:13;;;;;;;33.50;28.80;;;19.30;99.90;;;;;;5080231;28;20540;-52
2023/06/21 03:35:39;;;;;;;38.75;32.60;;;19.30;99.90;;;;;;5110399;28;20043;-51
2023/06/21 03:38:07;;;;;;;34.15;29.42;;;19.30;99.90;;;;;;5080729;28;20718;-54
2023/06/21 03:40:33;;;;;;;30.20;26.95;;;19.20;99.90;;;;;;5110699;28;20435;-50
2023/06/21 03:42:58;;;;;;;29.95;25.52;;;19.30;99.90;;;;;;5080530;28;20024;-54
2023/06/21 03:45:24;;;;;;;26.73;23.90;;;19.20;99.90;;;;;;5110353;28;20042;-51
2023/06/21 03:47:49;;;;;;;24.42;21.95;;;19.30;99.90;;;;;;5082493;28;20040;-53
2023/06/21 03:50:15;;;;;;;24.63;22.00;;;19.30;99.90;;;;;;5070950;28;20051;-51
2023/06/21 03:52:40;;;;;;;25.88;23.13;;;19.30;99.90;;;;;;5096030;28;20562;-50
2023/06/21 03:55:07;;;;;;;27.70;24.08;;;19.40;99.90;;;;;;5070892;28;20027;-51
2023/06/21 03:57:33;;;;;;;25.27;22.50;;;19.30;99.90;;;;;;5098493;28;20507;-50
2023/06/21 03:59:59;;;;;;;25.08;22.42;;;19.40;99.90;;;;;;5070953;28;20033;-53
2023/06/21 04:02:24;;;;;;;27.40;24.45;;;19.40;99.90;;;;;;5099144;28;20133;-49
2023/06/21 04:04:51;;;;;;;31.17;27.88;;;19.40;99.90;;;;;;5074853;28;20104;-51
2023/06/21 04:07:21;;;;;;;30.42;26.55;;;19.40;99.90;;;;;;5101771;28;20019;-52
2023/06/21 04:09:47;;;;;;;30.33;27.13;;;19.40;99.90;;;;;;5070545;28;20029;-50
2023/06/21 04:12:13;;;;;;;26.40;23.25;;;19.50;99.90;;;;;;5103537;28;20028;-53
2023/06/21 04:14:39;;;;;;;25.58;22.38;;;19.50;99.90;;;;;;5070472;28;20625;-52
2023/06/21 04:17:05;;;;;;;28.20;23.98;;;19.50;99.90;;;;;;5105794;28;20027;-52
2023/06/21 04:19:30;;;;;;;29.42;23.83;;;19.60;99.90;;;;;;5070356;28;20119;-53
2023/06/21 04:21:56;;;;;;;29.80;25.02;;;19.60;99.90;;;;;;5109602;28;20122;-53
2023/06/21 04:24:21;;;;;;;28.50;24.70;;;19.60;99.90;;;;;;5075464;28;20495;-50
2023/06/21 04:26:48;;;;;;;27.83;24.70;;;19.70;99.90;;;;;;5109522;28;20092;-48
2023/06/21 04:29:16;;;;;;;26.77;24.08;;;19.70;99.90;;;;;;5090391;28;20055;-52
2023/06/21 04:31:42;;;;;;;27.75;23.88;;;19.70;99.90;;;;;;5090386;28;20131;-48
2023/06/21 04:34:08;;;;;;;27.38;23.85;;;19.80;99.90;;;;;;5080648;28;20029;-49
2023/06/21 04:36:34;;;;;;;26.77;23.52;;;19.80;99.90;;;;;;5109008;28;20023;-54
2023/06/21 04:39:00;;;;;;;28.13;25.13;;;19.80;99.90;;;;;;5076240;28;20081;-51
2023/06/21 04:41:25;;;;;;;26.17;23.42;;;19.90;99.90;;;;;;5095560;28;20043;-50
2023/06/21 04:43:51;;;;;;;24.65;22.10;;;19.90;99.90;;;;;;5082772;28;20141;-50
2023/06/21 04:46:17;;;;;;;26.58;22.13;;;20.00;99.90;;;;;;5109165;28;20043;-54
2023/06/21 04:48:46;;;;;;;23.02;20.52;;;20.10;99.90;;;;;;5088521;28;20032;-51
2023/06/21 04:51:15;;;;;;;33.40;26.15;;;20.20;99.90;;;;;;5109913;28;20023;-51
2023/06/21 04:53:44;;;;;;;26.83;24.13;;;20.20;99.90;;;;;;5076800;28;20617;-51
2023/06/21 04:56:13;;;;;;;25.25;22.50;;;20.30;99.90;;;;;;5109958;28;20100;-54
2023/06/21 04:58:39;;;;;;;24.80;22.05;;;20.30;99.90;;;;;;5076808;28;20028;-54
2023/06/21 05:01:06;;;;;;;24.77;22.27;;;20.40;99.90;;;;;;5107216;28;20051;-52
2023/06/21 05:03:32;;;;;;;27.27;24.48;;;20.50;99.90;;;;;;5078401;28;20529;-53
2023/06/21 05:05:59;;;;;;;27.60;24.80;;;20.60;99.90;;;;;;5084978;28;20040;-50
2023/06/21 05:08:24;;;;;;;25.83;23.13;;;20.70;99.90;;;;;;5089766;28;20048;-52
2023/06/21 05:10:50;;;;;;;24.63;22.02;;;20.70;99.90;;;;;;5108536;28;20028;-54
2023/06/21 05:13:16;;;;;;;25.15;22.40;;;20.80;99.90;;;;;;5079188;28;20579;-53
2023/06/21 05:15:41;;;;;;;25.83;23.05;;;20.90;99.90;;;;;;5069398;28;20051;-51
2023/06/21 05:18:07;;;;;;;24.00;21.60;;;21.20;99.90;;;;;;5101093;28;20076;-52
2023/06/21 05:20:33;;;;;;;24.08;21.05;;;22.10;99.90;;;;;;5086550;28;20505;-54
2023/06/21 05:22:58;;;;;;;22.17;19.95;;;22.80;99.90;;;;;;5088317;28;20062;-55
2023/06/21 05:25:24;;;;;;;23.92;21.38;;;24.00;99.90;;;;;;5088329;28;20062;-53
2023/06/21 05:27:49;;;;;;;21.83;19.52;;;25.10;99.90;;;;;;5108121;28;20044;-53
2023/06/21 05:30:15;;;;;;;23.42;20.90;;;26.10;99.90;;;;;;5087572;28;20040;-53
2023/06/21 05:32:40;;;;;;;23.38;20.92;;;27.00;99.90;;;;;;5108530;28;20054;-55
2023/06/21 05:35:06;;;;;;;22.70;20.40;;;27.90;99.90;;;;;;5088243;28;20364;-52
2023/06/21 05:37:32;;;;;;;22.85;19.30;;;28.70;99.90;;;;;;5087979;28;20034;-55
2023/06/21 05:40:00;;;;;;;21.05;19.05;;;29.50;99.90;;;;;;5107322;28;20020;-56
2023/06/21 05:42:26;;;;;;;19.13;17.33;;;30.30;96.60;;;;;;5066653;28;20050;-55
2023/06/21 05:44:52;;;;;;;20.48;18.23;;;31.00;95.10;;;;;;5106727;28;20032;-50
2023/06/21 05:47:17;;;;;;;20.08;18.27;;;31.60;92.70;;;;;;5068155;28;20043;-54
2023/06/21 05:49:43;;;;;;;19.60;17.60;;;32.20;90.30;;;;;;5106572;28;20026;-53
2023/06/21 05:52:08;;;;;;;19.67;17.90;;;32.90;85.30;;;;;;5069908;28;20023;-55
2023/06/21 05:54:34;;;;;;;20.23;18.42;;;33.30;81.70;;;;;;5106642;28;20203;-54
2023/06/21 05:57:02;;;;;;;20.02;18.02;;;33.70;76.80;;;;;;5070586;28;20044;-54
2023/06/21 05:59:27;;;;;;;19.85;18.05;;;34.00;74.40;;;;;;5107068;28;20030;-52
2023/06/21 06:01:53;;;;;;;19.55;17.88;;;34.30;70.90;;;;;;5070756;28;20321;-49
2023/06/21 06:04:18;;;;;;;20.10;18.13;;;34.50;68.60;;;;;;5106092;28;20748;-55
2023/06/21 06:06:44;;;;;;;19.77;18.00;;;34.70;65.70;;;;;;5082299;28;20412;-54
2023/06/21 06:09:10;;;;;;;18.98;17.20;;;35.10;63.10;;;;;;5085907;28;20024;-55
2023/06/21 06:11:35;;;;;;;18.25;16.58;;;35.30;61.20;;;;;;5107313;28;20028;-51
2023/06/21 06:14:01;;;;;;;19.35;17.50;;;35.50;59.30;;;;;;5068012;28;20094;-52
2023/06/21 06:16:27;;;;;;;21.67;19.77;;;35.70;56.70;;;;;;5106735;28;20090;-52
2023/06/21 06:18:53;;;;;;;18.27;16.52;;;35.80;54.40;;;;;;5069064;28;20029;-54
2023/06/21 06:21:21;;;;;;;21.00;18.95;;;35.80;53.00;;;;;;5106584;28;20035;-51
2023/06/21 06:23:51;;;;;;;17.48;15.90;;;35.70;51.70;;;;;;5069283;28;20047;-52
2023/06/21 06:26:25;;;;;;;18.88;17.02;;;36.20;48.70;;;;;;5107025;28;20531;-53
2023/06/21 06:28:51;;;;;;;18.17;16.55;;;36.70;40.00;;;;;;5078388;28;20086;-53
2023/06/21 06:31:23;;;;;;;19.50;17.80;;;37.20;44.90;;;;;;5108101;28;20038;-54
2023/06/21 06:33:49;;;;;;;18.25;16.55;;;37.70;39.00;;;;;;5068903;28;20078;-54
2023/06/21 06:36:15;;;;;;;18.17;16.52;;;37.60;41.00;;;;;;5106526;28;20626;-51
2023/06/21 06:38:40;;;;;;;18.05;16.45;;;37.40;39.30;;;;;;5082243;28;20449;-50
2023/06/21 06:41:06;;;;;;;17.30;15.77;;;37.80;37.70;;;;;;5087465;28;20480;-54
2023/06/21 06:43:33;;;;;;;18.63;16.85;;;38.00;35.70;;;;;;5076449;28;20398;-51
2023/06/21 06:45:58;;;;;;;17.20;15.55;;;38.50;33.50;;;;;;5106593;28;20444;-54
2023/06/21 06:48:26;;;;;;;18.45;16.77;;;38.80;31.40;;;;;;5072786;28;20028;-50
2023/06/21 06:50:52;;;;;;;17.05;15.55;;;37.90;29.50;;;;;;5106979;28;20035;-54
2023/06/21 06:53:17;;;;;;;17.85;16.17;;;36.70;32.10;;;;;;5074047;28;20047;-53
2023/06/21 06:55:43;;;;;;;17.75;16.17;;;35.90;33.00;;;;;;5106298;28;20671;-55
2023/06/21 06:58:09;;;;;;;15.65;14.25;;;35.50;33.70;;;;;;5074920;28;20029;-54
2023/06/21 07:00:34;;;;;;;16.00;14.60;;;36.00;32.80;;;;;;5106288;28;20426;-55
2023/06/21 07:03:00;;;;;;;16.20;14.80;;;36.80;31.00;;;;;;5095442;28;20061;-54
2023/06/21 07:05:26;;;;;;;16.17;14.68;;;37.20;30.20;;;;;;5090448;28;20047;-53
2023/06/21 07:07:52;;;;;;;16.17;14.73;;;37.20;29.20;;;;;;5077035;28;20131;-55
2023/06/21 07:10:18;;;;;;;14.55;13.35;;;37.10;29.10;;;;;;5106319;28;20124;-54
2023/06/21 07:12:44;;;;;;;14.63;13.43;;;36.50;29.20;;;;;;5093076;28;20028;-55
2023/06/21 07:15:10;;;;;;;13.77;12.65;;;36.80;28.70;;;;;;5107486;28;20054;-54
2023/06/21 07:17:35;;;;;;;13.75;12.45;;;37.90;27.00;;;;;;5083021;28;20433;-54
2023/06/21 07:20:01;;;;;;;11.90;10.90;;;39.20;25.20;;;;;;5070426;28;20021;-55
2023/06/21 07:22:26;;;;;;;11.77;10.68;;;40.40;23.20;;;;;;5097439;28;20539;-54
2023/06/21 07:24:52;;;;;;;12.57;11.35;;;41.40;21.30;;;;;;5070508;28;20107;-54
2023/06/21 07:27:17;;;;;;;12.20;11.13;;;41.80;20.00;;;;;;5099885;28;20726;-53
2023/06/21 07:29:43;;;;;;;12.23;11.07;;;41.00;19.60;;;;;;5094175;28;20043;-55
2023/06/21 07:32:09;;;;;;;12.40;11.35;;;40.20;20.00;;;;;;5091779;28;20362;-52
2023/06/21 07:34:34;;;;;;;10.55;9.73;;;40.60;19.40;;;;;;5110869;28;20027;-55
2023/06/21 07:37:00;;;;;;;10.35;9.50;;;41.40;18.40;;;;;;5087467;28;20190;-54
2023/06/21 07:39:25;;;;;;;11.00;10.00;;;42.00;17.40;;;;;;5070281;28;20032;-54
2023/06/21 07:41:51;;;;;;;10.00;9.20;;;42.10;16.30;;;;;;5106857;28;20511;-54
2023/06/21 07:44:17;;;;;;;9.50;8.70;;;42.30;15.80;;;;;;5070260;28;20037;-52
2023/06/21 07:46:43;;;;;;;9.38;8.57;;;42.40;14.90;;;;;;5109307;28;20612;-51
2023/06/21 07:49:09;;;;;;;9.52;8.73;;;42.10;14.30;;;;;;5069338;28;20235;-54
2023/06/21 07:51:34;;;;;;;9.20;8.45;;;42.10;13.80;;;;;;5107926;28;20408;-54
2023/06/21 07:54:00;;;;;;;8.95;8.15;;;42.30;13.20;;;;;;5070482;28;20047;-50
2023/06/21 07:56:25;;;;;;;9.73;8.93;;;41.50;13.30;;;;;;5108920;28;20427;-53
2023/06/21 07:58:51;;;;;;;8.05;7.38;;;40.20;14.00;;;;;;5087287;28;20024;-53
2023/06/21 08:01:16;;;;;;;8.40;7.70;;;39.60;14.60;;;;;;5109640;28;20037;-54
2023/06/21 08:03:42;;;;;;;7.70;7.10;;;40.00;14.20;;;;;;5072509;28;20033;-51
2023/06/21 08:06:08;;;;;;;8.45;7.65;;;39.90;14.00;;;;;;5102895;28;20777;-52
2023/06/21 08:08:33;;;;;;;8.13;7.45;;;39.00;14.60;;;;;;5088440;28;20115;-53
2023/06/21 08:10:59;;;;;;;8.98;8.27;;;37.80;15.20;;;;;;5096222;28;20058;-52
2023/06/21 08:13:26;;;;;;;10.27;8.52;;;37.20;16.00;;;;;;5074437;28;20036;-52
2023/06/21 08:15:51;;;;;;;8.55;7.85;;;36.50;16.70;;;;;;5108829;28;20089;-54
2023/06/21 08:18:17;;;;;;;9.93;9.00;;;35.80;17.50;;;;;;5076127;28;20643;-54
2023/06/21 08:20:43;;;;;;;8.65;7.95;;;35.40;18.00;;;;;;5108447;28;20043;-52
2023/06/21 08:23:08;;;;;;;8.27;7.57;;;35.10;18.50;;;;;;5077037;28;20024;-53
2023/06/21 08:25:35;;;;;;;9.32;8.52;;;35.00;18.80;;;;;;5108421;28;20020;-53
2023/06/21 08:28:01;;;;;;;8.32;7.60;;;35.00;19.50;;;;;;5076870;28;20094;-52
2023/06/21 08:30:27;;;;;;;7.20;6.60;;;35.30;18.80;;;;;;5108351;28;20050;-54
2023/06/21 08:32:52;;;;;;;7.50;6.68;;;36.20;18.20;;;;;;5079025;28;20028;-53
2023/06/21 08:35:18;;;;;;;7.05;6.50;;;37.00;17.50;;;;;;5108160;28;20023;-52
2023/06/21 08:37:55;;;;;;;7.03;6.43;;;37.30;17.10;;;;;;5079994;28;20511;-53
2023/06/21 08:40:25;;;;;;;7.50;6.90;;;37.10;15.60;;;;;;5068679;28;20166;-53
2023/06/21 08:42:51;;;;;;;8.88;6.60;;;37.10;17.00;;;;;;5083694;28;20039;-53
2023/06/21 08:45:16;;;;;;;7.32;6.63;;;37.40;17.00;;;;;;5088766;28;20045;-51
2023/06/21 08:47:42;;;;;;;7.43;6.80;;;37.60;17.00;;;;;;5093495;28;20057;-56
2023/06/21 08:50:11;;;;;;;7.00;6.45;;;37.50;17.20;;;;;;5109322;28;20069;-53
2023/06/21 08:52:38;;;;;;;6.82;6.22;;;37.40;17.30;;;;;;5080336;28;20520;-51
2023/06/21 08:55:11;;;;;;;7.28;6.68;;;37.40;17.60;;;;;;5084271;28;20024;-54
2023/06/21 08:57:51;;;;;;;7.07;6.47;;;37.40;17.10;;;;;;5066646;28;20736;-52
2023/06/21 09:00:21;;;;;;;6.80;5.72;;;37.60;15.40;;;;;;5068635;28;20036;-54
2023/06/21 09:02:59;;;;;;;6.25;5.75;;;37.50;17.30;;;;;;5090852;28;20154;-53
2023/06/21 09:06:03;;;;;;;6.03;5.53;;;37.80;15.60;;;;;;5096981;28;20518;-53
2023/06/21 09:08:31;;;;;;;5.70;5.15;;;37.90;15.30;;;;;;5066452;28;20036;-52
2023/06/21 09:10:57;;;;;;;6.28;5.78;;;37.80;16.50;;;;;;5088981;28;20078;-52
2023/06/21 09:13:24;;;;;;;6.57;5.97;;;37.60;16.80;;;;;;5073482;28;20032;-50
2023/06/21 09:15:51;;;;;;;7.00;6.28;;;37.50;17.00;;;;;;5108012;28;20027;-53
2023/06/21 09:18:17;;;;;;;8.60;6.70;;;37.40;16.80;;;;;;5074881;28;20495;-50
2023/06/21 09:20:48;;;;;;;8.20;7.40;;;37.40;16.50;;;;;;5092480;28;20027;-52
2023/06/21 09:23:13;;;;;;;7.10;6.50;;;37.30;16.40;;;;;;5074620;28;20040;-54
2023/06/21 09:25:39;;;;;;;7.53;6.72;;;37.20;16.30;;;;;;5107125;28;20036;-53
2023/06/21 09:28:04;;;;;;;7.03;6.43;;;37.20;16.10;;;;;;5076477;28;20036;-53
2023/06/21 09:30:30;;;;;;;8.07;7.38;;;37.20;16.10;;;;;;5104914;28;20046;-53
2023/06/21 09:32:57;;;;;;;7.60;7.00;;;37.20;16.10;;;;;;5087811;28;20028;-53
2023/06/21 09:35:23;;;;;;;7.57;6.22;;;37.20;15.90;;;;;;5107339;28;20055;-54
2023/06/21 09:37:48;;;;;;;7.65;6.75;;;37.30;16.00;;;;;;5078435;28;20327;-52
2023/06/21 09:40:14;;;;;;;6.72;5.88;;;37.30;15.70;;;;;;5106132;28;20030;-53
2023/06/21 09:42:41;;;;;;;7.15;6.10;;;37.10;15.70;;;;;;5077510;28;20519;-50
2023/06/21 09:45:18;;;;;;;6.65;6.05;;;36.90;15.50;;;;;;5067949;28;20077;-51
2023/06/21 09:47:43;;;;;;;5.97;5.47;;;36.50;15.50;;;;;;5065824;28;20039;-53
2023/06/21 09:50:10;;;;;;;7.20;6.53;;;36.10;15.70;;;;;;5067978;28;20099;-50
2023/06/21 09:52:36;;;;;;;7.60;7.00;;;35.80;16.00;;;;;;5101335;28;20118;-52
2023/06/21 09:55:05;;;;;;;7.68;7.00;;;35.40;16.50;;;;;;5067771;28;20143;-52
2023/06/21 09:57:32;;;;;;;8.32;7.60;;;35.10;17.70;;;;;;5105645;28;20070;-53
2023/06/21 09:59:59;;;;;;;8.82;7.07;;;34.70;18.30;;;;;;5108134;28;20020;-50
2023/06/21 10:02:25;;;;;;;8.27;7.60;;;34.60;18.30;;;;;;5093700;28;20020;-52
2023/06/21 10:04:54;;;;;;;8.05;7.32;;;34.60;18.40;;;;;;5075218;28;20016;-54
2023/06/21 10:07:21;;;;;;;8.70;7.65;;;34.70;18.50;;;;;;5097280;28;20024;-51
2023/06/21 10:09:47;;;;;;;8.45;7.65;;;34.70;18.80;;;;;;5066622;28;20497;-49
2023/06/21 10:12:14;;;;;;;8.40;7.60;;;34.50;18.70;;;;;;5106601;28;20122;-51
2023/06/21 10:14:40;;;;;;;8.48;7.78;;;34.40;19.10;;;;;;5066786;28;20032;-52
2023/06/21 10:17:06;;;;;;;8.32;7.45;;;34.20;19.40;;;;;;5108033;28;20038;-54
2023/06/21 10:19:33;;;;;;;8.65;7.45;;;33.90;19.80;;;;;;5067787;28;20123;-53
2023/06/21 10:22:16;;;;;;;8.55;6.95;;;33.60;20.20;;;;;;5107780;28;20028;-54
2023/06/21 10:24:47;;;;;;;7.65;6.63;;;33.50;21.10;;;;;;5066665;28;20028;-50
2023/06/21 10:27:14;;;;;;;6.50;5.90;;;33.50;20.30;;;;;;5068621;28;20485;-53
2023/06/21 10:29:41;;;;;;;7.35;6.60;;;33.50;20.40;;;;;;5067041;28;20032;-50
2023/06/21 10:32:07;;;;;;;7.07;6.10;;;33.40;20.50;;;;;;5108374;28;20187;-52
2023/06/21 10:34:52;;;;;;;7.30;6.60;;;33.10;20.70;;;;;;5068869;28;20036;-52
2023/06/21 10:37:37;;;;;;;8.38;6.05;;;32.90;21.70;;;;;;5068436;28;20119;-50
2023/06/21 10:40:05;;;;;;;6.80;6.20;;;32.80;21.90;;;;;;5068409;28;20033;-53
2023/06/21 10:42:32;;;;;;;7.32;6.72;;;32.60;22.30;;;;;;5103479;28;20042;-51
2023/06/21 10:44:59;;;;;;;7.20;6.50;;;32.40;22.30;;;;;;5068220;28;20021;-50
2023/06/21 10:47:25;;;;;;;6.95;6.22;;;32.30;22.40;;;;;;5104836;28;20063;-53
2023/06/21 10:49:56;;;;;;;6.80;6.18;;;32.20;22.50;;;;;;5068382;28;20039;-55
2023/06/21 10:52:22;;;;;;;7.03;6.32;;;32.20;22.90;;;;;;5069595;28;20037;-51
2023/06/21 10:54:49;;;;;;;7.05;6.20;;;32.20;22.90;;;;;;5072136;28;20131;-51
2023/06/21 10:57:16;;;;;;;7.03;6.38;;;32.10;23.10;;;;;;5110387;28;20034;-52
2023/06/21 10:59:43;;;;;;;7.00;6.40;;;32.00;23.30;;;;;;5070837;28;20517;-54
2023/06/21 11:02:08;;;;;;;7.20;6.50;;;32.00;23.80;;;;;;5111576;28;20031;-53
2023/06/21 11:05:12;;;;;;;8.45;6.55;;;31.90;24.10;;;;;;5073554;28;20029;-51
2023/06/21 11:07:38;;;;;;;7.35;6.65;;;31.80;25.00;;;;;;5105865;28;20071;-51
2023/06/21 11:10:05;;;;;;;6.97;6.25;;;31.90;24.60;;;;;;5071855;28;20024;-51
2023/06/21 11:12:31;;;;;;;6.95;6.25;;;31.90;24.60;;;;;;5109128;28;20024;-50
2023/06/21 11:14:57;;;;;;;6.32;5.72;;;32.00;24.70;;;;;;5112427;28;20364;-55
2023/06/21 11:17:24;;;;;;;7.60;6.90;;;32.10;24.70;;;;;;5090034;28;20032;-54
2023/06/21 11:19:49;;;;;;;7.28;6.22;;;32.10;24.60;;;;;;5071567;28;20016;-54
2023/06/21 11:22:24;;;;;;;6.13;5.40;;;32.00;24.30;;;;;;5110846;28;20035;-54
2023/06/21 11:25:00;;;;;;;6.63;5.63;;;32.00;24.20;;;;;;5071655;28;20029;-54
2023/06/21 11:27:28;;;;;;;7.32;6.00;;;32.00;24.40;;;;;;5069547;28;20182;-53
2023/06/21 11:29:59;;;;;;;7.05;5.50;;;32.00;24.40;;;;;;5071195;28;20075;-54
2023/06/21 11:32:28;;;;;;;5.80;5.20;;;32.00;24.30;;;;;;5108328;28;20043;-54
2023/06/21 11:34:58;;;;;;;6.85;5.00;;;32.00;24.40;;;;;;5071229;28;20056;-53
2023/06/21 11:37:44;;;;;;;8.13;5.88;;;31.90;24.60;;;;;;5068617;28;20029;-54
2023/06/21 11:40:11;;;;;;;7.03;6.32;;;32.00;25.60;;;;;;5112088;28;20387;-53
2023/06/21 11:42:43;;;;;;;6.18;5.57;;;32.10;24.50;;;;;;5087253;28;20052;-53
2023/06/21 11:45:24;;;;;;;6.30;5.70;;;32.10;24.40;;;;;;5071292;28;20065;-50
2023/06/21 11:48:03;;;;;;;6.35;5.57;;;31.90;24.40;;;;;;5068996;28;20182;-52
2023/06/21 11:50:45;;;;;;;6.00;5.50;;;31.90;24.40;;;;;;5071027;28;20092;-52
2023/06/21 11:53:38;;;;;;;6.55;5.72;;;31.90;24.10;;;;;;5069424;28;20020;-52
2023/06/21 11:56:05;;;;;;;5.82;5.32;;;31.90;24.10;;;;;;5070970;28;20063;-53
2023/06/21 11:58:31;;;;;;;5.60;5.10;;;31.90;24.00;;;;;;5108430;28;20020;-55
2023/06/21 12:00:57;;;;;;;6.25;4.95;;;31.90;24.00;;;;;;5091307;28;20543;-54
2023/06/21 12:03:27;;;;;;;7.28;6.25;;;31.80;24.20;;;;;;5107305;28;20043;-50
2023/06/21 12:05:57;;;;;;;6.03;5.43;;;31.70;24.10;;;;;;5096576;28;20088;-51
2023/06/21 12:08:26;;;;;;;6.07;5.47;;;31.70;24.20;;;;;;5068734;28;20032;-52
2023/06/21 12:10:52;;;;;;;5.85;5.35;;;31.70;24.20;;;;;;5110702;28;20555;-52
2023/06/21 12:13:19;;;;;;;6.13;5.63;;;31.70;24.40;;;;;;5081168;28;20309;-52
2023/06/21 12:15:56;;;;;;;6.88;5.70;;;31.90;24.50;;;;;;5110181;28;20402;-52
2023/06/21 12:18:23;;;;;;;6.30;5.70;;;32.00;24.40;;;;;;5068462;28;20024;-53
2023/06/21 12:20:54;;;;;;;6.90;5.55;;;31.90;24.20;;;;;;5110044;28;20031;-51
2023/06/21 12:23:21;;;;;;;6.15;5.53;;;31.90;23.60;;;;;;5078816;28;20189;-51
2023/06/21 12:25:51;;;;;;;5.40;4.90;;;31.70;23.70;;;;;;5110133;28;20027;-51
2023/06/21 12:28:18;;;;;;;5.25;4.75;;;31.80;23.60;;;;;;5068177;28;20036;-50
2023/06/21 12:30:47;;;;;;;6.18;5.20;;;31.80;23.70;;;;;;5111101;28;20416;-50
2023/06/21 12:33:14;;;;;;;6.82;5.10;;;31.80;23.60;;;;;;5080414;28;20033;-53
2023/06/21 12:35:39;;;;;;;5.60;5.10;;;31.70;23.60;;;;;;5109448;28;20031;-55
2023/06/21 12:38:18;;;;;;;5.82;5.10;;;31.60;23.70;;;;;;5086251;28;20024;-55